Seagoville's Hourly Summary for Saturday, May 12, 2018
Hour Temp
(f)
RH
(%)
Solar Rad.
(MJ/m2)
Rainfall
(in)
Wind
(mph)
5/12/2018 12:00 AM 74 69 0 0 10.58
5/12/2018 1:00 AM 74 73 0 0 11.35
5/12/2018 2:00 AM 73 74 0 0 11
5/12/2018 3:00 AM 72 80 0 0 9.09
5/12/2018 4:00 AM 72 81 0 0 8.59
5/12/2018 5:00 AM 72 82 0 0 7.14
5/12/2018 6:00 AM 72 83 0.02 0 6.25
5/12/2018 7:00 AM 72 85 0.29 0 5.59
5/12/2018 8:00 AM 74 79 0.99 0 8.11
5/12/2018 9:00 AM 75 76 0.72 0 6.59
5/12/2018 10:00 AM 77 64 1.59 0 8.99
5/12/2018 11:00 AM 80 56 2.55 0 9.97
5/12/2018 12:00 PM 82 50 2.51 0 10.18
5/12/2018 1:00 PM 83 48 1.88 0 8.91
5/12/2018 2:00 PM 84 47 1.91 0 9.14
5/12/2018 3:00 PM 85 46 2.19 0 8.54
5/12/2018 4:00 PM 86 44 2.02 0 9.24
5/12/2018 5:00 PM 86 44 1.61 0 9.28
5/12/2018 6:00 PM 85 44 0.89 0 8.41
5/12/2018 7:00 PM 82 48 0.27 0 4.42
5/12/2018 8:00 PM 78 60 0.01 0 1.75
5/12/2018 9:00 PM 75 70 0 0 2.27
5/12/2018 10:00 PM 74 75 0 0 2.45
5/12/2018 11:00 PM 73 78 0 0 2.74
Data Summary 77 64 19.45 0.00 7.52